sensor_id;sensor_type;location;lat;lon;timestamp;P1;durP1;ratioP1;P2;durP2;ratioP2
5869;SDS011;2961;47.702;9.410;2022-12-29T00:02:25;3.53;;;2.47;;
5869;SDS011;2961;47.702;9.410;2022-12-29T00:04:52;5.20;;;3.20;;
5869;SDS011;2961;47.702;9.410;2022-12-29T00:07:20;7.73;;;2.97;;
5869;SDS011;2961;47.702;9.410;2022-12-29T00:09:47;5.80;;;3.53;;
5869;SDS011;2961;47.702;9.410;2022-12-29T00:12:13;9.07;;;3.50;;
5869;SDS011;2961;47.702;9.410;2022-12-29T00:14:40;3.43;;;2.60;;
5869;SDS011;2961;47.702;9.410;2022-12-29T00:17:25;3.60;;;3.10;;
5869;SDS011;2961;47.702;9.410;2022-12-29T00:19:52;3.47;;;3.13;;
5869;SDS011;2961;47.702;9.410;2022-12-29T00:22:37;6.17;;;2.60;;
5869;SDS011;2961;47.702;9.410;2022-12-29T00:25:21;2.93;;;2.63;;
5869;SDS011;2961;47.702;9.410;2022-12-29T00:28:07;2.93;;;2.57;;
5869;SDS011;2961;47.702;9.410;2022-12-29T00:30:52;2.37;;;2.00;;
5869;SDS011;2961;47.702;9.410;2022-12-29T00:33:36;2.77;;;2.53;;
5869;SDS011;2961;47.702;9.410;2022-12-29T00:36:21;5.77;;;3.43;;
5869;SDS011;2961;47.702;9.410;2022-12-29T00:38:54;3.13;;;2.83;;
5869;SDS011;2961;47.702;9.410;2022-12-29T00:41:41;2.70;;;2.47;;
5869;SDS011;2961;47.702;9.410;2022-12-29T00:44:25;3.80;;;3.20;;
5869;SDS011;2961;47.702;9.410;2022-12-29T00:46:52;5.83;;;3.10;;
5869;SDS011;2961;47.702;9.410;2022-12-29T00:49:18;3.33;;;2.93;;
5869;SDS011;2961;47.702;9.410;2022-12-29T00:51:58;2.40;;;2.30;;
5869;SDS011;2961;47.702;9.410;2022-12-29T00:54:28;3.03;;;2.40;;
5869;SDS011;2961;47.702;9.410;2022-12-29T00:56:57;2.77;;;2.60;;
5869;SDS011;2961;47.702;9.410;2022-12-29T00:59:24;2.33;;;2.20;;
5869;SDS011;2961;47.702;9.410;2022-12-29T01:01:51;3.57;;;2.50;;
5869;SDS011;2961;47.702;9.410;2022-12-29T01:04:18;2.60;;;2.40;;
5869;SDS011;2961;47.702;9.410;2022-12-29T01:06:46;2.60;;;2.40;;
5869;SDS011;2961;47.702;9.410;2022-12-29T01:09:13;2.87;;;2.57;;
5869;SDS011;2961;47.702;9.410;2022-12-29T01:12:04;5.60;;;2.47;;
5869;SDS011;2961;47.702;9.410;2022-12-29T01:14:32;2.40;;;2.27;;
5869;SDS011;2961;47.702;9.410;2022-12-29T01:16:59;2.70;;;2.50;;
5869;SDS011;2961;47.702;9.410;2022-12-29T01:19:26;2.57;;;2.30;;
5869;SDS011;2961;47.702;9.410;2022-12-29T01:21:53;2.37;;;2.20;;
5869;SDS011;2961;47.702;9.410;2022-12-29T01:24:20;5.00;;;3.13;;
5869;SDS011;2961;47.702;9.410;2022-12-29T01:26:47;2.33;;;2.13;;
5869;SDS011;2961;47.702;9.410;2022-12-29T01:29:15;3.90;;;2.63;;
5869;SDS011;2961;47.702;9.410;2022-12-29T01:31:42;2.17;;;2.03;;
5869;SDS011;2961;47.702;9.410;2022-12-29T01:34:09;3.23;;;3.03;;
5869;SDS011;2961;47.702;9.410;2022-12-29T01:36:36;2.63;;;2.13;;
5869;SDS011;2961;47.702;9.410;2022-12-29T01:39:03;2.40;;;2.20;;
5869;SDS011;2961;47.702;9.410;2022-12-29T01:41:29;2.30;;;2.10;;
5869;SDS011;2961;47.702;9.410;2022-12-29T01:43:57;2.50;;;2.30;;
5869;SDS011;2961;47.702;9.410;2022-12-29T01:46:28;2.63;;;2.40;;
5869;SDS011;2961;47.702;9.410;2022-12-29T01:48:59;2.70;;;2.50;;
5869;SDS011;2961;47.702;9.410;2022-12-29T01:51:30;5.30;;;2.50;;
5869;SDS011;2961;47.702;9.410;2022-12-29T01:54:00;2.23;;;2.00;;
5869;SDS011;2961;47.702;9.410;2022-12-29T01:56:28;2.13;;;2.00;;
5869;SDS011;2961;47.702;9.410;2022-12-29T01:58:58;2.60;;;2.40;;
5869;SDS011;2961;47.702;9.410;2022-12-29T02:01:32;2.57;;;2.37;;
5869;SDS011;2961;47.702;9.410;2022-12-29T02:03:59;3.90;;;2.37;;
5869;SDS011;2961;47.702;9.410;2022-12-29T02:06:28;6.50;;;2.20;;
5869;SDS011;2961;47.702;9.410;2022-12-29T02:08:59;3.43;;;2.50;;
5869;SDS011;2961;47.702;9.410;2022-12-29T02:11:26;2.60;;;2.40;;
5869;SDS011;2961;47.702;9.410;2022-12-29T02:13:54;2.33;;;2.13;;
5869;SDS011;2961;47.702;9.410;2022-12-29T02:16:26;1.77;;;1.67;;
5869;SDS011;2961;47.702;9.410;2022-12-29T02:19:08;3.40;;;2.07;;
5869;SDS011;2961;47.702;9.410;2022-12-29T02:22:00;2.07;;;1.97;;
5869;SDS011;2961;47.702;9.410;2022-12-29T02:30:44;2.20;;;2.00;;
5869;SDS011;2961;47.702;9.410;2022-12-29T02:33:21;2.03;;;1.90;;
5869;SDS011;2961;47.702;9.410;2022-12-29T02:35:57;1.97;;;1.87;;
5869;SDS011;2961;47.702;9.410;2022-12-29T02:38:39;3.57;;;2.13;;
5869;SDS011;2961;47.702;9.410;2022-12-29T02:41:15;2.10;;;1.90;;
5869;SDS011;2961;47.702;9.410;2022-12-29T02:43:49;4.40;;;2.93;;
5869;SDS011;2961;47.702;9.410;2022-12-29T02:46:24;1.90;;;1.70;;
5869;SDS011;2961;47.702;9.410;2022-12-29T02:48:59;2.70;;;2.50;;
5869;SDS011;2961;47.702;9.410;2022-12-29T02:51:31;2.30;;;2.00;;
5869;SDS011;2961;47.702;9.410;2022-12-29T02:54:01;2.00;;;1.83;;
5869;SDS011;2961;47.702;9.410;2022-12-29T02:56:46;1.73;;;1.63;;
5869;SDS011;2961;47.702;9.410;2022-12-29T02:59:13;3.03;;;2.80;;
5869;SDS011;2961;47.702;9.410;2022-12-29T03:01:45;6.13;;;1.97;;
5869;SDS011;2961;47.702;9.410;2022-12-29T03:04:48;2.80;;;2.50;;
5869;SDS011;2961;47.702;9.410;2022-12-29T03:07:27;2.40;;;2.30;;
5869;SDS011;2961;47.702;9.410;2022-12-29T03:10:01;2.60;;;2.40;;
5869;SDS011;2961;47.702;9.410;2022-12-29T03:12:37;4.10;;;1.57;;
5869;SDS011;2961;47.702;9.410;2022-12-29T03:15:31;2.83;;;1.87;;
5869;SDS011;2961;47.702;9.410;2022-12-29T03:18:22;1.50;;;1.40;;
5869;SDS011;2961;47.702;9.410;2022-12-29T03:20:56;2.40;;;1.43;;
5869;SDS011;2961;47.702;9.410;2022-12-29T03:23:28;2.90;;;1.87;;
5869;SDS011;2961;47.702;9.410;2022-12-29T03:25:57;1.50;;;1.40;;
5869;SDS011;2961;47.702;9.410;2022-12-29T03:28:28;1.43;;;1.33;;
5869;SDS011;2961;47.702;9.410;2022-12-29T03:30:59;2.37;;;1.80;;
5869;SDS011;2961;47.702;9.410;2022-12-29T03:33:30;3.40;;;1.37;;
5869;SDS011;2961;47.702;9.410;2022-12-29T03:36:00;3.70;;;1.10;;
5869;SDS011;2961;47.702;9.410;2022-12-29T03:38:30;1.73;;;1.10;;
5869;SDS011;2961;47.702;9.410;2022-12-29T03:41:07;0.83;;;0.70;;
5869;SDS011;2961;47.702;9.410;2022-12-29T03:43:37;1.97;;;1.43;;
5869;SDS011;2961;47.702;9.410;2022-12-29T03:46:04;2.00;;;1.00;;
5869;SDS011;2961;47.702;9.410;2022-12-29T03:48:32;1.40;;;1.30;;
5869;SDS011;2961;47.702;9.410;2022-12-29T03:50:59;5.37;;;2.30;;
5869;SDS011;2961;47.702;9.410;2022-12-29T03:53:26;0.97;;;0.93;;
5869;SDS011;2961;47.702;9.410;2022-12-29T03:55:53;4.93;;;1.20;;
5869;SDS011;2961;47.702;9.410;2022-12-29T03:58:19;1.23;;;1.13;;
5869;SDS011;2961;47.702;9.410;2022-12-29T04:00:46;1.10;;;1.10;;
5869;SDS011;2961;47.702;9.410;2022-12-29T04:03:13;2.50;;;1.30;;
5869;SDS011;2961;47.702;9.410;2022-12-29T04:05:41;2.77;;;1.50;;
5869;SDS011;2961;47.702;9.410;2022-12-29T04:08:08;3.47;;;1.00;;
5869;SDS011;2961;47.702;9.410;2022-12-29T04:10:34;1.10;;;1.10;;
5869;SDS011;2961;47.702;9.410;2022-12-29T04:13:01;3.33;;;1.23;;
5869;SDS011;2961;47.702;9.410;2022-12-29T04:15:28;1.53;;;1.37;;
5869;SDS011;2961;47.702;9.410;2022-12-29T04:17:55;1.10;;;0.97;;
5869;SDS011;2961;47.702;9.410;2022-12-29T04:20:21;1.27;;;1.00;;
5869;SDS011;2961;47.702;9.410;2022-12-29T04:23:07;0.93;;;0.93;;
5869;SDS011;2961;47.702;9.410;2022-12-29T04:25:34;1.63;;;1.47;;
5869;SDS011;2961;47.702;9.410;2022-12-29T04:28:01;0.80;;;0.80;;
5869;SDS011;2961;47.702;9.410;2022-12-29T04:30:28;4.37;;;1.03;;
5869;SDS011;2961;47.702;9.410;2022-12-29T04:32:54;0.93;;;0.90;;
5869;SDS011;2961;47.702;9.410;2022-12-29T04:35:21;1.30;;;0.80;;
5869;SDS011;2961;47.702;9.410;2022-12-29T04:37:48;1.33;;;1.23;;
5869;SDS011;2961;47.702;9.410;2022-12-29T04:40:16;3.20;;;0.97;;
5869;SDS011;2961;47.702;9.410;2022-12-29T04:42:43;4.17;;;1.20;;
5869;SDS011;2961;47.702;9.410;2022-12-29T04:45:10;1.90;;;1.20;;
5869;SDS011;2961;47.702;9.410;2022-12-29T04:47:37;1.80;;;1.23;;
5869;SDS011;2961;47.702;9.410;2022-12-29T04:50:04;2.30;;;1.30;;
5869;SDS011;2961;47.702;9.410;2022-12-29T04:52:31;1.20;;;1.10;;
5869;SDS011;2961;47.702;9.410;2022-12-29T04:54:58;2.03;;;1.00;;
5869;SDS011;2961;47.702;9.410;2022-12-29T04:57:26;6.10;;;1.63;;
5869;SDS011;2961;47.702;9.410;2022-12-29T04:59:53;2.10;;;0.87;;
5869;SDS011;2961;47.702;9.410;2022-12-29T05:02:20;1.10;;;0.93;;
5869;SDS011;2961;47.702;9.410;2022-12-29T05:04:46;0.87;;;0.83;;
5869;SDS011;2961;47.702;9.410;2022-12-29T05:07:13;1.23;;;1.13;;
5869;SDS011;2961;47.702;9.410;2022-12-29T05:09:41;1.67;;;0.80;;
5869;SDS011;2961;47.702;9.410;2022-12-29T05:12:07;1.63;;;1.20;;
5869;SDS011;2961;47.702;9.410;2022-12-29T05:14:36;1.60;;;1.50;;
5869;SDS011;2961;47.702;9.410;2022-12-29T05:17:02;3.10;;;1.93;;
5869;SDS011;2961;47.702;9.410;2022-12-29T05:19:29;1.17;;;1.13;;
5869;SDS011;2961;47.702;9.410;2022-12-29T05:21:56;1.70;;;0.80;;
5869;SDS011;2961;47.702;9.410;2022-12-29T05:24:23;4.33;;;1.13;;
5869;SDS011;2961;47.702;9.410;2022-12-29T05:26:50;1.50;;;0.80;;
5869;SDS011;2961;47.702;9.410;2022-12-29T05:29:16;1.53;;;1.50;;
5869;SDS011;2961;47.702;9.410;2022-12-29T05:31:45;2.60;;;1.10;;
5869;SDS011;2961;47.702;9.410;2022-12-29T05:34:12;1.80;;;1.00;;
5869;SDS011;2961;47.702;9.410;2022-12-29T05:36:38;0.63;;;0.63;;
5869;SDS011;2961;47.702;9.410;2022-12-29T05:39:05;1.77;;;0.97;;
5869;SDS011;2961;47.702;9.410;2022-12-29T05:41:33;2.07;;;0.90;;
5869;SDS011;2961;47.702;9.410;2022-12-29T05:44:00;1.90;;;1.07;;
5869;SDS011;2961;47.702;9.410;2022-12-29T05:46:27;1.20;;;1.10;;
5869;SDS011;2961;47.702;9.410;2022-12-29T05:48:55;1.23;;;1.23;;
5869;SDS011;2961;47.702;9.410;2022-12-29T05:51:22;1.40;;;1.10;;
5869;SDS011;2961;47.702;9.410;2022-12-29T05:53:48;2.70;;;1.20;;
5869;SDS011;2961;47.702;9.410;2022-12-29T05:56:15;1.40;;;1.40;;
5869;SDS011;2961;47.702;9.410;2022-12-29T05:58:42;1.60;;;1.50;;
5869;SDS011;2961;47.702;9.410;2022-12-29T06:01:09;1.20;;;1.20;;
5869;SDS011;2961;47.702;9.410;2022-12-29T06:03:36;2.50;;;1.40;;
5869;SDS011;2961;47.702;9.410;2022-12-29T06:06:04;1.00;;;1.00;;
5869;SDS011;2961;47.702;9.410;2022-12-29T06:08:32;1.50;;;1.40;;
5869;SDS011;2961;47.702;9.410;2022-12-29T06:10:59;1.07;;;1.07;;
5869;SDS011;2961;47.702;9.410;2022-12-29T06:13:26;1.30;;;1.23;;
5869;SDS011;2961;47.702;9.410;2022-12-29T06:15:53;1.10;;;1.10;;
5869;SDS011;2961;47.702;9.410;2022-12-29T06:18:20;1.57;;;1.47;;
5869;SDS011;2961;47.702;9.410;2022-12-29T06:20:47;1.47;;;1.47;;
5869;SDS011;2961;47.702;9.410;2022-12-29T06:23:15;1.30;;;1.20;;
5869;SDS011;2961;47.702;9.410;2022-12-29T06:25:43;1.20;;;1.17;;
5869;SDS011;2961;47.702;9.410;2022-12-29T06:28:10;1.70;;;1.57;;
5869;SDS011;2961;47.702;9.410;2022-12-29T06:30:36;2.10;;;2.00;;
5869;SDS011;2961;47.702;9.410;2022-12-29T06:33:03;2.40;;;2.03;;
5869;SDS011;2961;47.702;9.410;2022-12-29T06:35:32;2.17;;;2.07;;
5869;SDS011;2961;47.702;9.410;2022-12-29T06:37:59;2.93;;;2.27;;
5869;SDS011;2961;47.702;9.410;2022-12-29T06:40:27;1.57;;;1.50;;
5869;SDS011;2961;47.702;9.410;2022-12-29T06:42:54;2.13;;;1.90;;
5869;SDS011;2961;47.702;9.410;2022-12-29T06:45:21;3.30;;;2.00;;
5869;SDS011;2961;47.702;9.410;2022-12-29T06:47:48;2.70;;;1.57;;
5869;SDS011;2961;47.702;9.410;2022-12-29T06:50:14;1.73;;;1.63;;
5869;SDS011;2961;47.702;9.410;2022-12-29T06:52:41;1.00;;;0.90;;
5869;SDS011;2961;47.702;9.410;2022-12-29T06:55:08;1.03;;;1.00;;
5869;SDS011;2961;47.702;9.410;2022-12-29T06:57:36;3.30;;;1.40;;
5869;SDS011;2961;47.702;9.410;2022-12-29T07:00:03;1.13;;;0.93;;
5869;SDS011;2961;47.702;9.410;2022-12-29T07:02:31;1.10;;;1.10;;
5869;SDS011;2961;47.702;9.410;2022-12-29T07:04:57;2.80;;;1.53;;
5869;SDS011;2961;47.702;9.410;2022-12-29T07:07:24;1.40;;;1.30;;
5869;SDS011;2961;47.702;9.410;2022-12-29T07:09:51;1.73;;;0.90;;
5869;SDS011;2961;47.702;9.410;2022-12-29T07:12:17;1.23;;;1.03;;
5869;SDS011;2961;47.702;9.410;2022-12-29T07:14:46;2.37;;;1.50;;
5869;SDS011;2961;47.702;9.410;2022-12-29T07:17:12;2.73;;;1.00;;
5869;SDS011;2961;47.702;9.410;2022-12-29T07:19:39;2.57;;;1.10;;
5869;SDS011;2961;47.702;9.410;2022-12-29T07:22:06;4.83;;;1.40;;
5869;SDS011;2961;47.702;9.410;2022-12-29T07:24:32;1.13;;;1.13;;
5869;SDS011;2961;47.702;9.410;2022-12-29T07:26:59;2.50;;;1.37;;
5869;SDS011;2961;47.702;9.410;2022-12-29T07:29:26;1.40;;;1.30;;
5869;SDS011;2961;47.702;9.410;2022-12-29T07:31:54;2.20;;;1.90;;
5869;SDS011;2961;47.702;9.410;2022-12-29T07:34:21;8.60;;;1.87;;
5869;SDS011;2961;47.702;9.410;2022-12-29T07:36:48;3.50;;;1.10;;
5869;SDS011;2961;47.702;9.410;2022-12-29T07:39:14;1.53;;;1.30;;
5869;SDS011;2961;47.702;9.410;2022-12-29T07:41:41;3.20;;;1.00;;
5869;SDS011;2961;47.702;9.410;2022-12-29T07:44:08;1.03;;;1.03;;
5869;SDS011;2961;47.702;9.410;2022-12-29T07:46:35;2.67;;;1.13;;
5869;SDS011;2961;47.702;9.410;2022-12-29T07:49:03;1.17;;;1.13;;
5869;SDS011;2961;47.702;9.410;2022-12-29T07:51:30;10.57;;;2.00;;
5869;SDS011;2961;47.702;9.410;2022-12-29T07:53:57;5.03;;;1.37;;
5869;SDS011;2961;47.702;9.410;2022-12-29T07:56:25;1.93;;;1.37;;
5869;SDS011;2961;47.702;9.410;2022-12-29T07:58:52;6.23;;;1.60;;
5869;SDS011;2961;47.702;9.410;2022-12-29T08:01:19;5.10;;;1.00;;
5869;SDS011;2961;47.702;9.410;2022-12-29T08:03:46;1.10;;;1.10;;
5869;SDS011;2961;47.702;9.410;2022-12-29T08:06:14;4.30;;;1.40;;
5869;SDS011;2961;47.702;9.410;2022-12-29T08:08:41;2.10;;;1.10;;
5869;SDS011;2961;47.702;9.410;2022-12-29T08:11:08;2.60;;;2.40;;
5869;SDS011;2961;47.702;9.410;2022-12-29T08:13:35;3.27;;;1.70;;
5869;SDS011;2961;47.702;9.410;2022-12-29T08:16:01;1.70;;;1.60;;
5869;SDS011;2961;47.702;9.410;2022-12-29T08:18:28;0.90;;;0.90;;
5869;SDS011;2961;47.702;9.410;2022-12-29T08:20:55;1.80;;;1.70;;
5869;SDS011;2961;47.702;9.410;2022-12-29T08:23:28;1.13;;;1.13;;
5869;SDS011;2961;47.702;9.410;2022-12-29T08:25:56;1.40;;;1.30;;
5869;SDS011;2961;47.702;9.410;2022-12-29T08:28:23;2.37;;;1.70;;
5869;SDS011;2961;47.702;9.410;2022-12-29T08:30:50;2.67;;;1.50;;
5869;SDS011;2961;47.702;9.410;2022-12-29T08:33:17;2.50;;;1.17;;
5869;SDS011;2961;47.702;9.410;2022-12-29T08:35:44;10.67;;;1.53;;
5869;SDS011;2961;47.702;9.410;2022-12-29T08:38:11;1.10;;;1.00;;
5869;SDS011;2961;47.702;9.410;2022-12-29T08:40:39;1.77;;;1.50;;
5869;SDS011;2961;47.702;9.410;2022-12-29T08:43:06;2.97;;;2.00;;
5869;SDS011;2961;47.702;9.410;2022-12-29T08:45:33;1.00;;;0.90;;
5869;SDS011;2961;47.702;9.410;2022-12-29T08:48:00;1.30;;;1.30;;
5869;SDS011;2961;47.702;9.410;2022-12-29T08:50:26;1.33;;;1.20;;
5869;SDS011;2961;47.702;9.410;2022-12-29T08:52:53;4.00;;;1.10;;
5869;SDS011;2961;47.702;9.410;2022-12-29T08:55:20;2.73;;;1.00;;
5869;SDS011;2961;47.702;9.410;2022-12-29T08:57:48;2.80;;;1.20;;
5869;SDS011;2961;47.702;9.410;2022-12-29T09:00:15;2.50;;;1.50;;
5869;SDS011;2961;47.702;9.410;2022-12-29T09:02:42;2.80;;;1.67;;
5869;SDS011;2961;47.702;9.410;2022-12-29T09:05:08;4.03;;;1.50;;
5869;SDS011;2961;47.702;9.410;2022-12-29T09:07:35;3.07;;;1.70;;
5869;SDS011;2961;47.702;9.410;2022-12-29T09:10:02;1.70;;;1.60;;
5869;SDS011;2961;47.702;9.410;2022-12-29T09:12:30;1.60;;;1.60;;
5869;SDS011;2961;47.702;9.410;2022-12-29T09:14:58;2.90;;;1.60;;
5869;SDS011;2961;47.702;9.410;2022-12-29T09:17:25;2.57;;;1.40;;
5869;SDS011;2961;47.702;9.410;2022-12-29T09:20:08;2.40;;;1.30;;
5869;SDS011;2961;47.702;9.410;2022-12-29T09:22:35;2.10;;;1.30;;
5869;SDS011;2961;47.702;9.410;2022-12-29T09:25:02;4.63;;;1.30;;
5869;SDS011;2961;47.702;9.410;2022-12-29T09:27:29;2.97;;;1.20;;
5869;SDS011;2961;47.702;9.410;2022-12-29T09:29:56;1.50;;;1.40;;
5869;SDS011;2961;47.702;9.410;2022-12-29T09:32:24;2.07;;;1.70;;
5869;SDS011;2961;47.702;9.410;2022-12-29T09:34:51;4.80;;;2.33;;
5869;SDS011;2961;47.702;9.410;2022-12-29T09:37:18;3.47;;;2.50;;
5869;SDS011;2961;47.702;9.410;2022-12-29T09:39:46;2.50;;;2.30;;
5869;SDS011;2961;47.702;9.410;2022-12-29T09:42:14;1.70;;;1.40;;
5869;SDS011;2961;47.702;9.410;2022-12-29T09:44:49;1.13;;;0.93;;
5869;SDS011;2961;47.702;9.410;2022-12-29T09:47:23;1.60;;;1.50;;
5869;SDS011;2961;47.702;9.410;2022-12-29T09:49:52;4.00;;;1.10;;
5869;SDS011;2961;47.702;9.410;2022-12-29T09:52:22;1.03;;;0.93;;
5869;SDS011;2961;47.702;9.410;2022-12-29T09:54:55;1.43;;;1.33;;
5869;SDS011;2961;47.702;9.410;2022-12-29T09:57:25;3.10;;;2.30;;
5869;SDS011;2961;47.702;9.410;2022-12-29T09:59:55;3.93;;;2.10;;
5869;SDS011;2961;47.702;9.410;2022-12-29T10:02:32;3.70;;;1.60;;
5869;SDS011;2961;47.702;9.410;2022-12-29T10:05:03;2.07;;;1.70;;
5869;SDS011;2961;47.702;9.410;2022-12-29T10:07:40;1.83;;;1.73;;
5869;SDS011;2961;47.702;9.410;2022-12-29T10:10:15;3.27;;;2.10;;
5869;SDS011;2961;47.702;9.410;2022-12-29T10:12:52;2.00;;;1.90;;
5869;SDS011;2961;47.702;9.410;2022-12-29T10:15:36;1.57;;;1.47;;
5869;SDS011;2961;47.702;9.410;2022-12-29T10:18:17;2.07;;;1.90;;
5869;SDS011;2961;47.702;9.410;2022-12-29T10:20:52;1.43;;;1.27;;
5869;SDS011;2961;47.702;9.410;2022-12-29T10:23:26;6.50;;;1.60;;
5869;SDS011;2961;47.702;9.410;2022-12-29T10:25:54;2.23;;;1.47;;
5869;SDS011;2961;47.702;9.410;2022-12-29T10:28:24;4.10;;;2.03;;
5869;SDS011;2961;47.702;9.410;2022-12-29T10:31:15;1.50;;;1.40;;
5869;SDS011;2961;47.702;9.410;2022-12-29T10:33:48;1.43;;;1.40;;
5869;SDS011;2961;47.702;9.410;2022-12-29T10:36:19;1.20;;;1.20;;
5869;SDS011;2961;47.702;9.410;2022-12-29T10:38:54;2.77;;;1.70;;
5869;SDS011;2961;47.702;9.410;2022-12-29T10:41:32;1.20;;;1.10;;
5869;SDS011;2961;47.702;9.410;2022-12-29T10:44:04;1.80;;;1.43;;
5869;SDS011;2961;47.702;9.410;2022-12-29T10:46:32;1.25;;;1.25;;
5869;SDS011;2961;47.702;9.410;2022-12-29T10:49:03;1.30;;;1.10;;
5869;SDS011;2961;47.702;9.410;2022-12-29T10:51:32;1.40;;;1.40;;
5869;SDS011;2961;47.702;9.410;2022-12-29T10:54:03;2.10;;;1.30;;
5869;SDS011;2961;47.702;9.410;2022-12-29T10:56:39;1.33;;;1.23;;
5869;SDS011;2961;47.702;9.410;2022-12-29T10:59:11;1.47;;;1.33;;
5869;SDS011;2961;47.702;9.410;2022-12-29T11:01:46;2.13;;;1.90;;
5869;SDS011;2961;47.702;9.410;2022-12-29T11:04:28;1.17;;;1.17;;
5869;SDS011;2961;47.702;9.410;2022-12-29T11:07:08;2.90;;;1.67;;
5869;SDS011;2961;47.702;9.410;2022-12-29T11:09:37;1.40;;;1.30;;
5869;SDS011;2961;47.702;9.410;2022-12-29T11:12:18;0.90;;;0.90;;
5869;SDS011;2961;47.702;9.410;2022-12-29T11:14:46;4.23;;;1.23;;
5869;SDS011;2961;47.702;9.410;2022-12-29T11:17:14;5.33;;;1.53;;
5869;SDS011;2961;47.702;9.410;2022-12-29T11:19:44;2.53;;;1.40;;
5869;SDS011;2961;47.702;9.410;2022-12-29T11:22:12;1.50;;;1.30;;
5869;SDS011;2961;47.702;9.410;2022-12-29T11:24:46;1.93;;;1.50;;
5869;SDS011;2961;47.702;9.410;2022-12-29T11:27:15;2.07;;;1.10;;
5869;SDS011;2961;47.702;9.410;2022-12-29T11:29:44;1.73;;;0.90;;
5869;SDS011;2961;47.702;9.410;2022-12-29T11:32:12;1.23;;;1.00;;
5869;SDS011;2961;47.702;9.410;2022-12-29T11:34:45;1.47;;;1.20;;
5869;SDS011;2961;47.702;9.410;2022-12-29T11:37:13;0.93;;;0.93;;
5869;SDS011;2961;47.702;9.410;2022-12-29T11:39:44;0.70;;;0.70;;
5869;SDS011;2961;47.702;9.410;2022-12-29T11:42:17;2.40;;;1.37;;
5869;SDS011;2961;47.702;9.410;2022-12-29T11:44:46;1.07;;;0.70;;
5869;SDS011;2961;47.702;9.410;2022-12-29T11:47:26;5.50;;;1.47;;
5869;SDS011;2961;47.702;9.410;2022-12-29T11:49:57;0.93;;;0.93;;
5869;SDS011;2961;47.702;9.410;2022-12-29T11:52:26;3.07;;;1.30;;
5869;SDS011;2961;47.702;9.410;2022-12-29T11:54:58;4.63;;;1.20;;
5869;SDS011;2961;47.702;9.410;2022-12-29T11:57:27;3.33;;;1.53;;
5869;SDS011;2961;47.702;9.410;2022-12-29T11:59:54;1.17;;;1.07;;
5869;SDS011;2961;47.702;9.410;2022-12-29T12:02:24;4.63;;;1.23;;
5869;SDS011;2961;47.702;9.410;2022-12-29T12:05:09;2.83;;;1.27;;
5869;SDS011;2961;47.702;9.410;2022-12-29T12:07:45;0.70;;;0.70;;
5869;SDS011;2961;47.702;9.410;2022-12-29T12:10:16;1.23;;;1.13;;
5869;SDS011;2961;47.702;9.410;2022-12-29T12:12:48;2.30;;;1.30;;
5869;SDS011;2961;47.702;9.410;2022-12-29T12:15:21;2.63;;;1.10;;
5869;SDS011;2961;47.702;9.410;2022-12-29T12:17:54;1.53;;;1.43;;
5869;SDS011;2961;47.702;9.410;2022-12-29T12:20:27;1.83;;;0.90;;
5869;SDS011;2961;47.702;9.410;2022-12-29T12:23:07;3.83;;;1.97;;
5869;SDS011;2961;47.702;9.410;2022-12-29T12:25:47;1.87;;;1.13;;
5869;SDS011;2961;47.702;9.410;2022-12-29T12:28:24;1.93;;;1.00;;
5869;SDS011;2961;47.702;9.410;2022-12-29T12:30:59;1.87;;;1.77;;
5869;SDS011;2961;47.702;9.410;2022-12-29T12:33:30;2.63;;;1.87;;
5869;SDS011;2961;47.702;9.410;2022-12-29T12:36:07;3.90;;;1.30;;
5869;SDS011;2961;47.702;9.410;2022-12-29T12:38:48;2.63;;;2.47;;
5869;SDS011;2961;47.702;9.410;2022-12-29T12:41:22;4.10;;;2.20;;
5869;SDS011;2961;47.702;9.410;2022-12-29T12:43:59;4.13;;;1.83;;
5869;SDS011;2961;47.702;9.410;2022-12-29T12:49:34;2.30;;;1.27;;
5869;SDS011;2961;47.702;9.410;2022-12-29T12:52:27;1.40;;;1.13;;
5869;SDS011;2961;47.702;9.410;2022-12-29T12:55:02;1.70;;;1.60;;
5869;SDS011;2961;47.702;9.410;2022-12-29T12:57:47;1.70;;;0.90;;
5869;SDS011;2961;47.702;9.410;2022-12-29T13:00:23;3.50;;;1.17;;
5869;SDS011;2961;47.702;9.410;2022-12-29T13:02:57;6.20;;;2.50;;
5869;SDS011;2961;47.702;9.410;2022-12-29T13:05:39;4.97;;;2.30;;
5869;SDS011;2961;47.702;9.410;2022-12-29T13:08:44;2.67;;;1.47;;
5869;SDS011;2961;47.702;9.410;2022-12-29T13:11:25;2.53;;;1.60;;
5869;SDS011;2961;47.702;9.410;2022-12-29T13:14:05;2.10;;;1.90;;
5869;SDS011;2961;47.702;9.410;2022-12-29T13:16:41;1.40;;;1.03;;
5869;SDS011;2961;47.702;9.410;2022-12-29T13:19:16;1.40;;;1.40;;
5869;SDS011;2961;47.702;9.410;2022-12-29T13:21:52;1.97;;;1.33;;
5869;SDS011;2961;47.702;9.410;2022-12-29T13:24:28;1.20;;;1.20;;
5869;SDS011;2961;47.702;9.410;2022-12-29T13:27:03;2.10;;;1.20;;
5869;SDS011;2961;47.702;9.410;2022-12-29T13:29:40;1.73;;;1.63;;
5869;SDS011;2961;47.702;9.410;2022-12-29T13:32:25;2.43;;;1.73;;
5869;SDS011;2961;47.702;9.410;2022-12-29T13:35:22;3.63;;;1.20;;
5869;SDS011;2961;47.702;9.410;2022-12-29T13:38:10;1.50;;;1.43;;
5869;SDS011;2961;47.702;9.410;2022-12-29T13:40:43;2.37;;;1.87;;
5869;SDS011;2961;47.702;9.410;2022-12-29T13:43:12;2.60;;;1.87;;
5869;SDS011;2961;47.702;9.410;2022-12-29T13:45:41;1.53;;;1.40;;
5869;SDS011;2961;47.702;9.410;2022-12-29T13:48:11;3.50;;;1.30;;
5869;SDS011;2961;47.702;9.410;2022-12-29T13:50:43;1.60;;;1.50;;
5869;SDS011;2961;47.702;9.410;2022-12-29T13:53:15;2.20;;;1.77;;
5869;SDS011;2961;47.702;9.410;2022-12-29T13:55:51;2.00;;;1.20;;
5869;SDS011;2961;47.702;9.410;2022-12-29T13:58:25;2.50;;;1.40;;
5869;SDS011;2961;47.702;9.410;2022-12-29T14:00:58;1.40;;;1.30;;
5869;SDS011;2961;47.702;9.410;2022-12-29T14:06:22;9.07;;;1.40;;
5869;SDS011;2961;47.702;9.410;2022-12-29T14:08:51;4.83;;;0.97;;
5869;SDS011;2961;47.702;9.410;2022-12-29T14:11:22;1.43;;;1.10;;
5869;SDS011;2961;47.702;9.410;2022-12-29T14:13:51;4.57;;;1.47;;
5869;SDS011;2961;47.702;9.410;2022-12-29T14:16:28;2.70;;;1.30;;
5869;SDS011;2961;47.702;9.410;2022-12-29T14:19:03;2.23;;;1.10;;
5869;SDS011;2961;47.702;9.410;2022-12-29T14:21:32;2.17;;;2.07;;
5869;SDS011;2961;47.702;9.410;2022-12-29T14:33:15;4.03;;;2.37;;
5869;SDS011;2961;47.702;9.410;2022-12-29T14:35:43;1.63;;;1.30;;
5869;SDS011;2961;47.702;9.410;2022-12-29T14:38:15;1.27;;;1.20;;
5869;SDS011;2961;47.702;9.410;2022-12-29T14:40:45;3.63;;;1.20;;
5869;SDS011;2961;47.702;9.410;2022-12-29T14:43:14;2.93;;;1.10;;
5869;SDS011;2961;47.702;9.410;2022-12-29T14:45:51;3.23;;;1.00;;
5869;SDS011;2961;47.702;9.410;2022-12-29T14:48:32;1.50;;;1.30;;
5869;SDS011;2961;47.702;9.410;2022-12-29T14:51:02;1.67;;;1.13;;
5869;SDS011;2961;47.702;9.410;2022-12-29T14:53:45;2.67;;;1.80;;
5869;SDS011;2961;47.702;9.410;2022-12-29T14:56:14;1.20;;;1.10;;
5869;SDS011;2961;47.702;9.410;2022-12-29T14:58:53;5.20;;;1.60;;
5869;SDS011;2961;47.702;9.410;2022-12-29T15:01:24;1.73;;;1.63;;
5869;SDS011;2961;47.702;9.410;2022-12-29T15:03:55;2.30;;;1.30;;
5869;SDS011;2961;47.702;9.410;2022-12-29T15:06:24;1.13;;;1.03;;
5869;SDS011;2961;47.702;9.410;2022-12-29T15:08:55;4.00;;;1.33;;
5869;SDS011;2961;47.702;9.410;2022-12-29T15:11:31;2.83;;;1.00;;
5869;SDS011;2961;47.702;9.410;2022-12-29T15:14:30;1.40;;;1.30;;
5869;SDS011;2961;47.702;9.410;2022-12-29T15:16:59;1.47;;;1.30;;
5869;SDS011;2961;47.702;9.410;2022-12-29T15:19:27;2.47;;;1.53;;
5869;SDS011;2961;47.702;9.410;2022-12-29T15:21:54;1.13;;;1.03;;
5869;SDS011;2961;47.702;9.410;2022-12-29T15:24:22;12.77;;;1.47;;
5869;SDS011;2961;47.702;9.410;2022-12-29T15:26:50;1.50;;;1.00;;
5869;SDS011;2961;47.702;9.410;2022-12-29T15:29:31;1.50;;;1.35;;
5869;SDS011;2961;47.702;9.410;2022-12-29T15:32:09;1.88;;;1.65;;
5869;SDS011;2961;47.702;9.410;2022-12-29T15:34:42;1.60;;;1.50;;
5869;SDS011;2961;47.702;9.410;2022-12-29T15:37:15;2.17;;;2.00;;
5869;SDS011;2961;47.702;9.410;2022-12-29T15:39:47;2.60;;;1.80;;
5869;SDS011;2961;47.702;9.410;2022-12-29T15:42:21;4.97;;;2.97;;
5869;SDS011;2961;47.702;9.410;2022-12-29T15:45:03;1.63;;;1.53;;
5869;SDS011;2961;47.702;9.410;2022-12-29T15:47:32;1.63;;;1.53;;
5869;SDS011;2961;47.702;9.410;2022-12-29T15:50:02;3.30;;;1.90;;
5869;SDS011;2961;47.702;9.410;2022-12-29T15:52:30;5.30;;;1.63;;
5869;SDS011;2961;47.702;9.410;2022-12-29T15:54:58;3.17;;;2.50;;
5869;SDS011;2961;47.702;9.410;2022-12-29T15:57:28;1.80;;;1.57;;
5869;SDS011;2961;47.702;9.410;2022-12-29T15:59:58;3.10;;;2.07;;
5869;SDS011;2961;47.702;9.410;2022-12-29T16:02:27;3.80;;;2.23;;